Poy Sippi, WI

7:10 AM CST on December 21, 2014 (GMT -0600)
Wittman Regional | Change Station
CLOSE
Current Station
Airport
Location: Oshkosh,
Elevation: 807 ft
Nearby Weather Stations
Active Advisory: Special Statement

Elev 807 ft 43.98 °N, 88.56 °W | Updated 17 minutes ago

Overcast
Overcast
31 °F
Feels Like 24 °F
N
8
Wind Variable Wind from South

Today
High -- | Low -- °F
--% Chance of Precip.
Yesterday
High -- | Low -- °F
Precip. -- in
7:27 AM 4:20 PM
Waning Crescent, 0% visible
Pressure 30.18 in
Visibility 4.0 miles
Clouds Mostly Cloudy 1000 ft
Overcast 3300 ft
Windchill 24 °F
Dew Point 28 °F
Humidity 89%
Rainfall 0.00 in
Snow Depth Not available.
UV 0 out of 12
Pollen .10 out of 12
Air Quality Not available.
Flu Activity Not available.
METAR KOSH 211253Z 18007KT 4SM BR BKN010 OVC033 M01/M02 A3013 RMK AO2 SLP219 T10061022

More Conditions Fewer Conditions

Pressure 30.18 in
Visibility 4.0 miles
Clouds Mostly Cloudy 1000 ft
Overcast 3300 ft
Windchill 24 °F
Dew Point 28 °F
Humidity 89%
Rainfall 0.00 in
Snow Depth Not available.
UV 0 out of 12
Pollen .10 out of 12
Air Quality Not available.
Flu Activity Not available.
METAR KOSH 211253Z 18007KT 4SM BR BKN010 OVC033 M01/M02 A3013 RMK AO2 SLP219 T10061022

More Conditions Fewer Conditions

10-Day Weather Forecast

Almanac

Astronomy

Dec. 21, 2014 Rise Set
Actual Time
Civil Twilight
Nautical Twilight
Astronomical Twilight
Moon
Length of Visible Light
Length of Day
Tomorrow will be .
, % of the Moon is Illuminated

Today's Extremes

State Highs State Lows

Community

WunderPhotos

Upload Photos

1,779,373 photos uploaded!

WunderBlogs® & News

Nearby

Air Quality

  Air Quality AQ Index Pollutant
Not available.

Snow Depth

Station Depth Elevation

Earthquake Activity

City Distance Mag. Time & Date
Minimum magnitude displayed is 2.5.

Coastal Water Temperatures

Place Temperature

Nearby Weather Stations